sensor_id;sensor_type;location;lat;lon;timestamp;pressure;altitude;pressure_sealevel;temperature;humidity
74218;BME280;62579;47.288;18.646;2023-04-06T00:01:38;100112.72;;;0.75;62.21
74218;BME280;62579;47.288;18.646;2023-04-06T00:04:04;100109.09;;;0.82;61.15
74218;BME280;62579;47.288;18.646;2023-04-06T00:06:29;100111.66;;;0.73;62.14
74218;BME280;62579;47.288;18.646;2023-04-06T00:08:55;100103.19;;;0.74;62.25
74218;BME280;62579;47.288;18.646;2023-04-06T00:11:20;100104.69;;;0.75;61.69
74218;BME280;62579;47.288;18.646;2023-04-06T00:13:46;100101.50;;;0.80;61.14
74218;BME280;62579;47.288;18.646;2023-04-06T00:16:11;100102.94;;;0.69;62.72
74218;BME280;62579;47.288;18.646;2023-04-06T00:18:36;100098.63;;;0.58;63.00
74218;BME280;62579;47.288;18.646;2023-04-06T00:21:01;100101.31;;;0.58;62.13
74218;BME280;62579;47.288;18.646;2023-04-06T00:23:26;100097.25;;;0.67;61.15
74218;BME280;62579;47.288;18.646;2023-04-06T00:25:52;100091.00;;;0.57;61.31
74218;BME280;62579;47.288;18.646;2023-04-06T00:28:17;100093.34;;;0.55;60.15
74218;BME280;62579;47.288;18.646;2023-04-06T00:30:42;100086.72;;;0.59;58.96
74218;BME280;62579;47.288;18.646;2023-04-06T00:33:07;100090.88;;;0.48;59.25
74218;BME280;62579;47.288;18.646;2023-04-06T00:35:33;100085.50;;;0.48;59.07
74218;BME280;62579;47.288;18.646;2023-04-06T00:37:58;100087.19;;;0.42;58.93
74218;BME280;62579;47.288;18.646;2023-04-06T00:40:23;100083.66;;;0.45;58.48
74218;BME280;62579;47.288;18.646;2023-04-06T00:42:49;100074.13;;;0.44;58.39
74218;BME280;62579;47.288;18.646;2023-04-06T00:45:14;100086.03;;;0.43;58.31
74218;BME280;62579;47.288;18.646;2023-04-06T00:47:39;100075.31;;;0.43;57.98
74218;BME280;62579;47.288;18.646;2023-04-06T00:50:05;100072.97;;;0.45;57.62
74218;BME280;62579;47.288;18.646;2023-04-06T00:52:30;100077.56;;;0.44;57.34
74218;BME280;62579;47.288;18.646;2023-04-06T00:54:56;100070.09;;;0.52;57.16
74218;BME280;62579;47.288;18.646;2023-04-06T00:57:21;100066.56;;;0.55;56.76
74218;BME280;62579;47.288;18.646;2023-04-06T00:59:46;100074.41;;;0.62;56.56
74218;BME280;62579;47.288;18.646;2023-04-06T01:02:12;100062.97;;;0.62;56.65
74218;BME280;62579;47.288;18.646;2023-04-06T01:04:37;100069.06;;;0.62;56.73
74218;BME280;62579;47.288;18.646;2023-04-06T01:07:03;100065.72;;;0.58;57.01
74218;BME280;62579;47.288;18.646;2023-04-06T01:09:28;100068.50;;;0.54;57.32
74218;BME280;62579;47.288;18.646;2023-04-06T01:11:57;100068.13;;;0.40;57.87
74218;BME280;62579;47.288;18.646;2023-04-06T01:14:22;100071.31;;;0.35;59.28
74218;BME280;62579;47.288;18.646;2023-04-06T01:16:48;100071.31;;;0.35;59.00
74218;BME280;62579;47.288;18.646;2023-04-06T01:19:13;100070.87;;;0.36;59.38
74218;BME280;62579;47.288;18.646;2023-04-06T01:21:39;100067.31;;;0.27;59.86
74218;BME280;62579;47.288;18.646;2023-04-06T01:24:04;100073.06;;;0.25;60.07
74218;BME280;62579;47.288;18.646;2023-04-06T01:26:31;100068.53;;;0.22;60.05
74218;BME280;62579;47.288;18.646;2023-04-06T01:28:58;100068.16;;;0.08;60.27
74218;BME280;62579;47.288;18.646;2023-04-06T01:31:23;100068.72;;;0.15;60.11
74218;BME280;62579;47.288;18.646;2023-04-06T01:33:48;100054.09;;;0.20;59.41
74218;BME280;62579;47.288;18.646;2023-04-06T01:36:14;100060.38;;;0.13;59.90
74218;BME280;62579;47.288;18.646;2023-04-06T01:38:40;100060.47;;;0.10;60.39
74218;BME280;62579;47.288;18.646;2023-04-06T01:41:06;100055.62;;;0.05;60.46
74218;BME280;62579;47.288;18.646;2023-04-06T01:43:31;100057.53;;;0.04;60.45
74218;BME280;62579;47.288;18.646;2023-04-06T01:45:56;100060.72;;;-0.01;62.08
74218;BME280;62579;47.288;18.646;2023-04-06T01:48:22;100051.75;;;0.06;61.54
74218;BME280;62579;47.288;18.646;2023-04-06T01:50:47;100056.12;;;-0.01;61.51
74218;BME280;62579;47.288;18.646;2023-04-06T01:53:12;100056.69;;;-0.09;62.10
74218;BME280;62579;47.288;18.646;2023-04-06T01:55:37;100055.88;;;-0.06;62.40
74218;BME280;62579;47.288;18.646;2023-04-06T01:58:03;100053.44;;;-0.01;62.54
74218;BME280;62579;47.288;18.646;2023-04-06T02:00:28;100054.53;;;0.02;62.14
74218;BME280;62579;47.288;18.646;2023-04-06T02:02:53;100049.34;;;-0.05;62.49
74218;BME280;62579;47.288;18.646;2023-04-06T02:05:19;100049.44;;;-0.09;62.86
74218;BME280;62579;47.288;18.646;2023-04-06T02:07:44;100048.69;;;-0.09;63.02
74218;BME280;62579;47.288;18.646;2023-04-06T02:10:13;100042.31;;;-0.15;63.18
74218;BME280;62579;47.288;18.646;2023-04-06T02:12:39;100042.25;;;-0.12;62.74
74218;BME280;62579;47.288;18.646;2023-04-06T02:15:04;100043.59;;;-0.20;63.01
74218;BME280;62579;47.288;18.646;2023-04-06T02:17:29;100042.41;;;-0.19;63.51
74218;BME280;62579;47.288;18.646;2023-04-06T02:19:55;100045.06;;;-0.19;63.27
74218;BME280;62579;47.288;18.646;2023-04-06T02:22:20;100036.63;;;-0.33;63.91
74218;BME280;62579;47.288;18.646;2023-04-06T02:24:45;100048.25;;;-0.40;64.04
74218;BME280;62579;47.288;18.646;2023-04-06T02:27:11;100033.03;;;-0.43;64.11
74218;BME280;62579;47.288;18.646;2023-04-06T02:29:36;100046.87;;;-0.48;64.48
74218;BME280;62579;47.288;18.646;2023-04-06T02:32:02;100041.47;;;-0.44;64.24
74218;BME280;62579;47.288;18.646;2023-04-06T02:34:27;100039.97;;;-0.45;64.52
74218;BME280;62579;47.288;18.646;2023-04-06T02:36:52;100045.41;;;-0.49;64.68
74218;BME280;62579;47.288;18.646;2023-04-06T02:39:18;100041.47;;;-0.44;64.72
74218;BME280;62579;47.288;18.646;2023-04-06T02:41:44;100040.66;;;-0.41;64.61
74218;BME280;62579;47.288;18.646;2023-04-06T02:44:09;100036.87;;;-0.44;64.56
74218;BME280;62579;47.288;18.646;2023-04-06T02:46:34;100036.19;;;-0.48;64.63
74218;BME280;62579;47.288;18.646;2023-04-06T02:49:00;100032.28;;;-0.59;64.98
74218;BME280;62579;47.288;18.646;2023-04-06T02:51:25;100036.38;;;-0.55;64.76
74218;BME280;62579;47.288;18.646;2023-04-06T02:53:51;100033.59;;;-0.68;65.29
74218;BME280;62579;47.288;18.646;2023-04-06T02:56:16;100032.50;;;-0.70;65.32
74218;BME280;62579;47.288;18.646;2023-04-06T02:58:41;100027.75;;;-0.98;66.70
74218;BME280;62579;47.288;18.646;2023-04-06T03:01:06;100026.38;;;-1.06;67.17
74218;BME280;62579;47.288;18.646;2023-04-06T03:03:32;100035.09;;;-1.22;67.92
74218;BME280;62579;47.288;18.646;2023-04-06T03:05:57;100038.03;;;-1.36;68.54
74218;BME280;62579;47.288;18.646;2023-04-06T03:08:23;100041.25;;;-1.25;68.23
74218;BME280;62579;47.288;18.646;2023-04-06T03:10:51;100036.87;;;-1.35;68.05
74218;BME280;62579;47.288;18.646;2023-04-06T03:13:16;100035.84;;;-1.22;67.11
74218;BME280;62579;47.288;18.646;2023-04-06T03:15:41;100030.44;;;-1.18;66.78
74218;BME280;62579;47.288;18.646;2023-04-06T03:18:06;100026.87;;;-1.11;66.79
74218;BME280;62579;47.288;18.646;2023-04-06T03:20:31;100032.44;;;-1.02;66.49
74218;BME280;62579;47.288;18.646;2023-04-06T03:22:57;100027.53;;;-0.88;65.81
74218;BME280;62579;47.288;18.646;2023-04-06T03:25:22;100025.19;;;-0.86;65.12
74218;BME280;62579;47.288;18.646;2023-04-06T03:27:47;100028.13;;;-0.80;64.45
74218;BME280;62579;47.288;18.646;2023-04-06T03:30:13;100034.91;;;-0.76;64.55
74218;BME280;62579;47.288;18.646;2023-04-06T03:32:38;100029.84;;;-0.70;64.37
74218;BME280;62579;47.288;18.646;2023-04-06T03:35:05;100028.81;;;-0.76;64.64
74218;BME280;62579;47.288;18.646;2023-04-06T03:37:30;100036.87;;;-0.60;64.46
74218;BME280;62579;47.288;18.646;2023-04-06T03:39:55;100019.41;;;-0.65;64.12
74218;BME280;62579;47.288;18.646;2023-04-06T03:42:20;100025.56;;;-0.68;64.44
74218;BME280;62579;47.288;18.646;2023-04-06T03:44:45;100035.25;;;-0.74;65.08
74218;BME280;62579;47.288;18.646;2023-04-06T03:47:11;100029.44;;;-0.88;65.46
74218;BME280;62579;47.288;18.646;2023-04-06T03:49:36;100029.44;;;-0.88;65.42
74218;BME280;62579;47.288;18.646;2023-04-06T03:52:01;100029.59;;;-0.95;65.64
74218;BME280;62579;47.288;18.646;2023-04-06T03:54:26;100034.78;;;-0.88;65.35
74218;BME280;62579;47.288;18.646;2023-04-06T03:56:51;100033.03;;;-0.95;65.77
74218;BME280;62579;47.288;18.646;2023-04-06T03:59:17;100036.03;;;-0.93;64.77
74218;BME280;62579;47.288;18.646;2023-04-06T04:01:42;100025.66;;;-0.71;63.93
74218;BME280;62579;47.288;18.646;2023-04-06T04:04:07;100029.06;;;-0.71;63.64
74218;BME280;62579;47.288;18.646;2023-04-06T04:06:32;100034.19;;;-0.60;63.01
74218;BME280;62579;47.288;18.646;2023-04-06T04:08:57;100030.25;;;-0.55;62.69
74218;BME280;62579;47.288;18.646;2023-04-06T04:11:23;100026.16;;;-0.60;62.95
74218;BME280;62579;47.288;18.646;2023-04-06T04:13:48;100032.28;;;-0.59;63.26
74218;BME280;62579;47.288;18.646;2023-04-06T04:16:13;100029.19;;;-0.58;63.14
74218;BME280;62579;47.288;18.646;2023-04-06T04:18:38;100028.03;;;-0.57;63.33
74218;BME280;62579;47.288;18.646;2023-04-06T04:21:04;100035.50;;;-0.68;63.48
74218;BME280;62579;47.288;18.646;2023-04-06T04:23:29;100025.56;;;-0.68;63.42
74218;BME280;62579;47.288;18.646;2023-04-06T04:25:54;100027.06;;;-0.67;63.24
74218;BME280;62579;47.288;18.646;2023-04-06T04:28:19;100028.38;;;-0.75;63.33
74218;BME280;62579;47.288;18.646;2023-04-06T04:30:45;100028.62;;;-0.85;64.24
74218;BME280;62579;47.288;18.646;2023-04-06T04:33:10;100029.88;;;-0.90;65.41
74218;BME280;62579;47.288;18.646;2023-04-06T04:35:36;100031.22;;;-0.82;65.41
74218;BME280;62579;47.288;18.646;2023-04-06T04:38:01;100027.31;;;-0.77;65.20
74218;BME280;62579;47.288;18.646;2023-04-06T04:40:26;100025.12;;;-0.82;65.73
74218;BME280;62579;47.288;18.646;2023-04-06T04:42:51;100029.56;;;-0.76;64.51
74218;BME280;62579;47.288;18.646;2023-04-06T04:45:17;100030.81;;;-0.64;63.76
74218;BME280;62579;47.288;18.646;2023-04-06T04:47:42;100031.88;;;-0.78;64.81
74218;BME280;62579;47.288;18.646;2023-04-06T04:50:07;100039.28;;;-0.66;64.38
74218;BME280;62579;47.288;18.646;2023-04-06T04:52:32;100036.78;;;-0.56;63.44
74218;BME280;62579;47.288;18.646;2023-04-06T04:54:58;100030.53;;;-0.50;62.82
74218;BME280;62579;47.288;18.646;2023-04-06T04:57:23;100034.22;;;-0.44;62.25
74218;BME280;62579;47.288;18.646;2023-04-06T04:59:48;100039.50;;;-0.40;62.21
74218;BME280;62579;47.288;18.646;2023-04-06T05:02:15;100039.25;;;-0.30;62.00
74218;BME280;62579;47.288;18.646;2023-04-06T05:04:40;100039.25;;;-0.30;62.60
74218;BME280;62579;47.288;18.646;2023-04-06T05:07:06;100030.87;;;-0.32;62.91
74218;BME280;62579;47.288;18.646;2023-04-06T05:09:31;100033.28;;;-0.21;63.40
74218;BME280;62579;47.288;18.646;2023-04-06T05:11:57;100031.53;;;-0.28;64.86
74218;BME280;62579;47.288;18.646;2023-04-06T05:14:22;100034.16;;;-0.24;63.54
74218;BME280;62579;47.288;18.646;2023-04-06T05:16:48;100033.66;;;-0.19;64.02
74218;BME280;62579;47.288;18.646;2023-04-06T05:19:13;100022.44;;;-0.14;62.86
74218;BME280;62579;47.288;18.646;2023-04-06T05:21:38;100015.56;;;0.01;62.68
74218;BME280;62579;47.288;18.646;2023-04-06T05:24:03;100010.81;;;-0.08;63.00
74218;BME280;62579;47.288;18.646;2023-04-06T05:26:29;100013.72;;;-0.02;61.81
74218;BME280;62579;47.288;18.646;2023-04-06T05:28:54;100002.84;;;0.21;59.86
74218;BME280;62579;47.288;18.646;2023-04-06T05:31:20;100007.75;;;0.23;59.57
74218;BME280;62579;47.288;18.646;2023-04-06T05:33:45;100001.88;;;0.28;59.16
74218;BME280;62579;47.288;18.646;2023-04-06T05:36:10;99991.88;;;0.44;58.75
74218;BME280;62579;47.288;18.646;2023-04-06T05:38:36;99989.22;;;0.44;58.85
74218;BME280;62579;47.288;18.646;2023-04-06T05:41:02;99997.03;;;0.51;58.75
74218;BME280;62579;47.288;18.646;2023-04-06T05:43:27;99990.59;;;0.49;58.70
74218;BME280;62579;47.288;18.646;2023-04-06T05:45:52;99995.56;;;0.50;58.70
74218;BME280;62579;47.288;18.646;2023-04-06T05:48:17;99995.31;;;0.45;59.28
74218;BME280;62579;47.288;18.646;2023-04-06T05:50:42;99992.75;;;0.54;58.56
74218;BME280;62579;47.288;18.646;2023-04-06T05:53:08;99986.47;;;0.60;57.93
74218;BME280;62579;47.288;18.646;2023-04-06T05:55:33;99980.28;;;0.64;58.19
74218;BME280;62579;47.288;18.646;2023-04-06T05:57:59;99984.25;;;0.72;57.81
74218;BME280;62579;47.288;18.646;2023-04-06T06:00:24;99974.94;;;0.76;57.68
74218;BME280;62579;47.288;18.646;2023-04-06T06:02:49;99966.78;;;0.67;58.17
74218;BME280;62579;47.288;18.646;2023-04-06T06:05:15;99968.09;;;0.75;57.67
74218;BME280;62579;47.288;18.646;2023-04-06T06:07:40;99973.34;;;0.79;57.69
74218;BME280;62579;47.288;18.646;2023-04-06T06:10:05;99964.13;;;0.80;57.60
74218;BME280;62579;47.288;18.646;2023-04-06T06:12:31;99964.03;;;0.83;57.78
74218;BME280;62579;47.288;18.646;2023-04-06T06:14:56;99968.09;;;0.88;57.61
74218;BME280;62579;47.288;18.646;2023-04-06T06:17:21;99966.62;;;0.99;58.00
74218;BME280;62579;47.288;18.646;2023-04-06T06:19:47;99956.94;;;0.89;58.05
74218;BME280;62579;47.288;18.646;2023-04-06T06:22:12;99955.78;;;0.90;58.26
74218;BME280;62579;47.288;18.646;2023-04-06T06:24:37;99957.38;;;0.88;59.02
74218;BME280;62579;47.288;18.646;2023-04-06T06:27:03;99953.63;;;1.10;58.83
74218;BME280;62579;47.288;18.646;2023-04-06T06:29:29;99953.75;;;1.19;57.73
74218;BME280;62579;47.288;18.646;2023-04-06T06:31:54;99954.72;;;1.26;58.20
74218;BME280;62579;47.288;18.646;2023-04-06T06:34:19;99947.97;;;1.21;58.58
74218;BME280;62579;47.288;18.646;2023-04-06T06:36:45;99949.44;;;1.35;58.21
74218;BME280;62579;47.288;18.646;2023-04-06T06:39:13;99956.53;;;1.41;58.95
74218;BME280;62579;47.288;18.646;2023-04-06T06:41:39;99947.84;;;1.50;58.33
74218;BME280;62579;47.288;18.646;2023-04-06T06:44:05;99958.78;;;1.55;58.37
74218;BME280;62579;47.288;18.646;2023-04-06T06:46:30;99949.94;;;1.67;58.94
74218;BME280;62579;47.288;18.646;2023-04-06T06:48:55;99947.87;;;1.84;58.40
74218;BME280;62579;47.288;18.646;2023-04-06T06:51:20;99953.53;;;1.86;57.86
74218;BME280;62579;47.288;18.646;2023-04-06T06:53:46;99941.19;;;1.89;57.80
74218;BME280;62579;47.288;18.646;2023-04-06T06:56:11;99955.13;;;1.96;57.64
74218;BME280;62579;47.288;18.646;2023-04-06T06:58:37;99946.38;;;2.05;57.84
74218;BME280;62579;47.288;18.646;2023-04-06T07:01:03;99944.06;;;2.28;57.44
74218;BME280;62579;47.288;18.646;2023-04-06T07:03:29;99947.84;;;2.40;56.12
74218;BME280;62579;47.288;18.646;2023-04-06T07:05:55;99939.28;;;2.54;55.49
74218;BME280;62579;47.288;18.646;2023-04-06T07:08:21;99942.84;;;2.73;54.27
74218;BME280;62579;47.288;18.646;2023-04-06T07:10:46;99938.59;;;2.93;54.39
74218;BME280;62579;47.288;18.646;2023-04-06T07:13:12;99931.22;;;3.16;53.91
74218;BME280;62579;47.288;18.646;2023-04-06T07:15:39;99937.94;;;3.20;51.53
74218;BME280;62579;47.288;18.646;2023-04-06T07:18:04;99934.13;;;3.30;52.86
74218;BME280;62579;47.288;18.646;2023-04-06T07:20:30;99938.91;;;3.35;51.67
74218;BME280;62579;47.288;18.646;2023-04-06T07:22:55;99926.94;;;3.27;51.57
74218;BME280;62579;47.288;18.646;2023-04-06T07:25:20;99929.34;;;3.34;52.52
74218;BME280;62579;47.288;18.646;2023-04-06T07:27:46;99927.59;;;3.49;52.23
74218;BME280;62579;47.288;18.646;2023-04-06T07:30:11;99937.78;;;3.63;51.22
74218;BME280;62579;47.288;18.646;2023-04-06T07:32:36;99935.41;;;3.66;51.09
74218;BME280;62579;47.288;18.646;2023-04-06T07:35:02;99937.19;;;3.59;50.14
74218;BME280;62579;47.288;18.646;2023-04-06T07:37:27;99930.19;;;3.71;49.77
74218;BME280;62579;47.288;18.646;2023-04-06T07:39:52;99920.31;;;3.68;49.82
74218;BME280;62579;47.288;18.646;2023-04-06T07:42:19;99913.25;;;3.80;49.05
74218;BME280;62579;47.288;18.646;2023-04-06T07:44:44;99916.56;;;3.93;50.10
74218;BME280;62579;47.288;18.646;2023-04-06T07:47:09;99899.38;;;3.99;48.30
74218;BME280;62579;47.288;18.646;2023-04-06T07:49:35;99910.00;;;4.03;49.70
74218;BME280;62579;47.288;18.646;2023-04-06T07:52:01;99908.31;;;4.14;49.15
74218;BME280;62579;47.288;18.646;2023-04-06T07:54:27;99901.13;;;4.20;48.76
74218;BME280;62579;47.288;18.646;2023-04-06T07:56:53;99900.72;;;4.22;47.49
74218;BME280;62579;47.288;18.646;2023-04-06T07:59:18;99915.66;;;4.32;47.20
74218;BME280;62579;47.288;18.646;2023-04-06T08:01:43;99908.63;;;4.25;47.37
74218;BME280;62579;47.288;18.646;2023-04-06T08:04:08;99907.56;;;4.23;47.27
74218;BME280;62579;47.288;18.646;2023-04-06T08:06:34;99905.91;;;4.35;47.83
74218;BME280;62579;47.288;18.646;2023-04-06T08:08:59;99911.44;;;4.31;46.97
74218;BME280;62579;47.288;18.646;2023-04-06T08:11:25;99899.31;;;4.45;47.45
74218;BME280;62579;47.288;18.646;2023-04-06T08:13:51;99901.09;;;4.57;47.92
74218;BME280;62579;47.288;18.646;2023-04-06T08:16:17;99901.81;;;4.57;46.89
74218;BME280;62579;47.288;18.646;2023-04-06T08:18:42;99895.37;;;4.64;47.16
74218;BME280;62579;47.288;18.646;2023-04-06T08:21:07;99930.19;;;4.85;47.67
74218;BME280;62579;47.288;18.646;2023-04-06T08:23:32;99905.94;;;4.85;46.11
74218;BME280;62579;47.288;18.646;2023-04-06T08:25:58;99909.13;;;4.75;47.14
74218;BME280;62579;47.288;18.646;2023-04-06T08:28:23;99904.47;;;4.75;46.69
74218;BME280;62579;47.288;18.646;2023-04-06T08:30:48;99907.44;;;4.87;46.02
74218;BME280;62579;47.288;18.646;2023-04-06T08:33:14;99903.41;;;5.15;47.29
74218;BME280;62579;47.288;18.646;2023-04-06T08:35:39;99910.63;;;5.09;46.50
74218;BME280;62579;47.288;18.646;2023-04-06T08:38:05;99911.84;;;5.08;45.95
74218;BME280;62579;47.288;18.646;2023-04-06T08:40:35;99897.59;;;5.07;46.31
74218;BME280;62579;47.288;18.646;2023-04-06T08:43:00;99899.50;;;5.16;46.51
74218;BME280;62579;47.288;18.646;2023-04-06T08:45:27;99895.50;;;5.35;45.92
74218;BME280;62579;47.288;18.646;2023-04-06T08:47:52;99888.31;;;5.56;46.73
74218;BME280;62579;47.288;18.646;2023-04-06T08:50:19;99884.44;;;5.57;46.39
74218;BME280;62579;47.288;18.646;2023-04-06T08:52:46;99883.25;;;5.72;46.00
74218;BME280;62579;47.288;18.646;2023-04-06T08:55:11;99873.81;;;5.68;44.86
74218;BME280;62579;47.288;18.646;2023-04-06T08:57:36;99882.75;;;5.59;44.07
74218;BME280;62579;47.288;18.646;2023-04-06T09:00:02;99870.09;;;5.65;44.40
74218;BME280;62579;47.288;18.646;2023-04-06T09:02:27;99860.44;;;5.73;44.16
74218;BME280;62579;47.288;18.646;2023-04-06T09:04:53;99872.63;;;5.92;43.40
74218;BME280;62579;47.288;18.646;2023-04-06T09:07:18;99860.06;;;6.19;43.46
74218;BME280;62579;47.288;18.646;2023-04-06T09:09:44;99861.47;;;6.14;42.58
74218;BME280;62579;47.288;18.646;2023-04-06T09:12:28;99854.22;;;6.20;43.15
74218;BME280;62579;47.288;18.646;2023-04-06T09:14:54;99857.47;;;6.39;43.18
74218;BME280;62579;47.288;18.646;2023-04-06T09:17:24;99847.03;;;6.32;42.77
74218;BME280;62579;47.288;18.646;2023-04-06T09:19:50;99853.09;;;6.41;41.93
74218;BME280;62579;47.288;18.646;2023-04-06T09:22:15;99838.91;;;6.61;41.28
74218;BME280;62579;47.288;18.646;2023-04-06T09:24:41;99843.66;;;6.51;41.06
74218;BME280;62579;47.288;18.646;2023-04-06T09:27:07;99834.59;;;6.54;40.26
74218;BME280;62579;47.288;18.646;2023-04-06T09:29:32;99839.00;;;6.67;40.75
74218;BME280;62579;47.288;18.646;2023-04-06T09:32:02;99838.41;;;6.62;42.02
74218;BME280;62579;47.288;18.646;2023-04-06T09:34:27;99842.22;;;6.71;41.55
74218;BME280;62579;47.288;18.646;2023-04-06T09:36:52;99837.84;;;6.73;40.88
74218;BME280;62579;47.288;18.646;2023-04-06T09:39:20;99834.63;;;6.89;40.82
74218;BME280;62579;47.288;18.646;2023-04-06T09:41:48;99824.06;;;6.91;40.91
74218;BME280;62579;47.288;18.646;2023-04-06T09:44:13;99831.94;;;6.89;40.70
74218;BME280;62579;47.288;18.646;2023-04-06T09:49:04;99826.91;;;6.82;40.50
74218;BME280;62579;47.288;18.646;2023-04-06T09:51:31;99814.97;;;7.09;40.64
74218;BME280;62579;47.288;18.646;2023-04-06T09:53:56;99812.13;;;7.38;39.91
74218;BME280;62579;47.288;18.646;2023-04-06T09:56:26;99811.66;;;7.40;39.26
74218;BME280;62579;47.288;18.646;2023-04-06T09:58:53;99809.78;;;7.25;39.70
74218;BME280;62579;47.288;18.646;2023-04-06T10:01:21;99820.47;;;7.35;38.81
74218;BME280;62579;47.288;18.646;2023-04-06T10:03:56;99814.44;;;7.45;37.98
74218;BME280;62579;47.288;18.646;2023-04-06T10:06:27;99817.56;;;7.38;38.67
74218;BME280;62579;47.288;18.646;2023-04-06T10:08:57;99817.06;;;7.40;38.51
74218;BME280;62579;47.288;18.646;2023-04-06T10:11:23;99814.78;;;7.53;37.84
74218;BME280;62579;47.288;18.646;2023-04-06T10:13:48;99804.69;;;7.33;37.79
74218;BME280;62579;47.288;18.646;2023-04-06T10:16:15;99804.91;;;7.30;37.84
74218;BME280;62579;47.288;18.646;2023-04-06T10:18:41;99803.19;;;7.32;38.67
74218;BME280;62579;47.288;18.646;2023-04-06T10:21:10;99809.16;;;7.36;38.95
74218;BME280;62579;47.288;18.646;2023-04-06T10:23:41;99796.16;;;7.40;39.23
74218;BME280;62579;47.288;18.646;2023-04-06T10:26:12;99790.06;;;7.45;37.55
74218;BME280;62579;47.288;18.646;2023-04-06T10:28:40;99790.91;;;7.31;37.95
74218;BME280;62579;47.288;18.646;2023-04-06T10:31:06;99791.84;;;7.28;38.66
74218;BME280;62579;47.288;18.646;2023-04-06T10:33:31;99784.50;;;7.54;39.98
74218;BME280;62579;47.288;18.646;2023-04-06T10:35:56;99781.53;;;7.52;38.53
74218;BME280;62579;47.288;18.646;2023-04-06T10:38:35;99780.66;;;7.61;38.33
74218;BME280;62579;47.288;18.646;2023-04-06T10:41:04;99781.28;;;7.30;37.32
74218;BME280;62579;47.288;18.646;2023-04-06T10:43:32;99768.25;;;7.29;37.85
74218;BME280;62579;47.288;18.646;2023-04-06T10:45:59;99764.28;;;7.30;38.85
74218;BME280;62579;47.288;18.646;2023-04-06T10:48:25;99775.59;;;7.28;38.95
74218;BME280;62579;47.288;18.646;2023-04-06T10:50:51;99773.66;;;7.29;39.01
74218;BME280;62579;47.288;18.646;2023-04-06T10:53:23;99767.13;;;7.41;39.31
74218;BME280;62579;47.288;18.646;2023-04-06T10:55:54;99771.72;;;7.35;37.53
74218;BME280;62579;47.288;18.646;2023-04-06T10:58:19;99765.91;;;7.42;37.99
74218;BME280;62579;47.288;18.646;2023-04-06T11:00:45;99766.31;;;7.55;37.04
74218;BME280;62579;47.288;18.646;2023-04-06T11:03:11;99770.25;;;7.79;38.22
74218;BME280;62579;47.288;18.646;2023-04-06T11:05:36;99763.75;;;7.97;37.39
74218;BME280;62579;47.288;18.646;2023-04-06T11:08:01;99761.28;;;7.99;37.90
74218;BME280;62579;47.288;18.646;2023-04-06T11:10:26;99765.50;;;8.00;36.29
74218;BME280;62579;47.288;18.646;2023-04-06T11:12:55;99769.41;;;7.99;36.98
74218;BME280;62579;47.288;18.646;2023-04-06T11:15:20;99768.75;;;8.10;36.34
74218;BME280;62579;47.288;18.646;2023-04-06T11:17:45;99763.84;;;8.08;37.03
74218;BME280;62579;47.288;18.646;2023-04-06T11:20:11;99760.50;;;8.24;36.70
74218;BME280;62579;47.288;18.646;2023-04-06T11:22:36;99763.34;;;8.35;36.66
74218;BME280;62579;47.288;18.646;2023-04-06T11:25:12;99753.59;;;8.23;36.73
74218;BME280;62579;47.288;18.646;2023-04-06T11:27:38;99756.75;;;8.48;36.35
74218;BME280;62579;47.288;18.646;2023-04-06T11:30:04;99746.69;;;8.22;36.35
74218;BME280;62579;47.288;18.646;2023-04-06T11:32:29;99757.81;;;8.24;36.42
74218;BME280;62579;47.288;18.646;2023-04-06T11:34:55;99740.34;;;8.62;37.15
74218;BME280;62579;47.288;18.646;2023-04-06T11:37:25;99736.16;;;8.67;37.23
74218;BME280;62579;47.288;18.646;2023-04-06T11:39:51;99733.59;;;9.00;36.52
74218;BME280;62579;47.288;18.646;2023-04-06T11:42:21;99737.56;;;9.04;35.47
74218;BME280;62579;47.288;18.646;2023-04-06T11:44:46;99736.13;;;9.20;35.83
74218;BME280;62579;47.288;18.646;2023-04-06T11:47:13;99737.94;;;9.45;34.39
74218;BME280;62579;47.288;18.646;2023-04-06T11:49:39;99733.53;;;9.59;36.29
74218;BME280;62579;47.288;18.646;2023-04-06T11:52:15;99732.78;;;9.53;36.28
74218;BME280;62579;47.288;18.646;2023-04-06T11:54:41;99735.47;;;9.42;34.97
74218;BME280;62579;47.288;18.646;2023-04-06T11:57:07;99722.84;;;9.28;35.41
74218;BME280;62579;47.288;18.646;2023-04-06T11:59:33;99726.56;;;9.41;36.32
74218;BME280;62579;47.288;18.646;2023-04-06T12:01:58;99715.69;;;9.30;36.00
74218;BME280;62579;47.288;18.646;2023-04-06T12:04:23;99719.59;;;9.13;36.47
74218;BME280;62579;47.288;18.646;2023-04-06T12:06:48;99730.56;;;8.81;36.63
74218;BME280;62579;47.288;18.646;2023-04-06T12:09:14;99723.00;;;9.02;36.03
74218;BME280;62579;47.288;18.646;2023-04-06T12:11:39;99712.19;;;9.19;36.16
74218;BME280;62579;47.288;18.646;2023-04-06T12:14:06;99710.97;;;9.25;37.27
74218;BME280;62579;47.288;18.646;2023-04-06T12:16:32;99709.75;;;9.26;37.90
74218;BME280;62579;47.288;18.646;2023-04-06T12:18:57;99712.28;;;9.46;35.91
74218;BME280;62579;47.288;18.646;2023-04-06T12:21:22;99719.44;;;9.44;36.00
74218;BME280;62579;47.288;18.646;2023-04-06T12:23:48;99718.91;;;9.34;36.46
74218;BME280;62579;47.288;18.646;2023-04-06T12:26:13;99708.25;;;9.14;36.24
74218;BME280;62579;47.288;18.646;2023-04-06T12:28:38;99710.97;;;9.20;36.78
74218;BME280;62579;47.288;18.646;2023-04-06T12:31:03;99708.31;;;9.47;37.05
74218;BME280;62579;47.288;18.646;2023-04-06T12:33:29;99702.88;;;9.53;37.69
74218;BME280;62579;47.288;18.646;2023-04-06T12:35:54;99710.75;;;9.34;38.12
74218;BME280;62579;47.288;18.646;2023-04-06T12:38:19;99724.56;;;9.20;37.85
74218;BME280;62579;47.288;18.646;2023-04-06T12:40:45;99705.50;;;9.09;37.39
74218;BME280;62579;47.288;18.646;2023-04-06T12:43:10;99718.78;;;9.01;38.17
74218;BME280;62579;47.288;18.646;2023-04-06T12:45:37;99703.75;;;9.00;38.83
74218;BME280;62579;47.288;18.646;2023-04-06T12:48:03;99712.09;;;8.91;37.60